sensor_id;sensor_type;location;lat;lon;timestamp;temperature;humidity
3017;DHT22;1518;52.408;13.060;2022-07-23T00:00:29;17.70;99.90
3017;DHT22;1518;52.408;13.060;2022-07-23T00:03:25;17.80;99.90
3017;DHT22;1518;52.408;13.060;2022-07-23T00:06:13;17.80;99.90
3017;DHT22;1518;52.408;13.060;2022-07-23T00:09:03;17.90;99.90
3017;DHT22;1518;52.408;13.060;2022-07-23T00:11:52;18.10;99.90
3017;DHT22;1518;52.408;13.060;2022-07-23T00:14:41;18.10;99.90
3017;DHT22;1518;52.408;13.060;2022-07-23T00:17:29;18.00;99.90
3017;DHT22;1518;52.408;13.060;2022-07-23T00:20:17;18.10;99.90
3017;DHT22;1518;52.408;13.060;2022-07-23T00:23:05;18.00;99.90
3017;DHT22;1518;52.408;13.060;2022-07-23T00:25:54;17.90;99.90
3017;DHT22;1518;52.408;13.060;2022-07-23T00:28:44;17.90;99.90
3017;DHT22;1518;52.408;13.060;2022-07-23T00:31:32;18.00;99.90
3017;DHT22;1518;52.408;13.060;2022-07-23T00:34:20;18.10;99.90
3017;DHT22;1518;52.408;13.060;2022-07-23T00:37:08;18.20;99.90
3017;DHT22;1518;52.408;13.060;2022-07-23T00:39:56;18.10;99.90
3017;DHT22;1518;52.408;13.060;2022-07-23T00:42:45;18.10;99.90
3017;DHT22;1518;52.408;13.060;2022-07-23T00:45:34;18.00;99.90
3017;DHT22;1518;52.408;13.060;2022-07-23T00:48:22;17.90;99.90
3017;DHT22;1518;52.408;13.060;2022-07-23T00:51:11;17.90;99.90
3017;DHT22;1518;52.408;13.060;2022-07-23T00:53:59;17.80;99.90
3017;DHT22;1518;52.408;13.060;2022-07-23T00:56:47;17.70;99.90
3017;DHT22;1518;52.408;13.060;2022-07-23T00:59:37;17.60;99.90
3017;DHT22;1518;52.408;13.060;2022-07-23T01:02:27;17.50;99.90
3017;DHT22;1518;52.408;13.060;2022-07-23T01:05:15;17.40;99.90
3017;DHT22;1518;52.408;13.060;2022-07-23T01:08:05;17.40;99.90
3017;DHT22;1518;52.408;13.060;2022-07-23T01:10:53;17.30;99.90
3017;DHT22;1518;52.408;13.060;2022-07-23T01:13:42;17.10;99.90
3017;DHT22;1518;52.408;13.060;2022-07-23T01:16:31;17.10;99.90
3017;DHT22;1518;52.408;13.060;2022-07-23T01:19:20;17.00;99.90
3017;DHT22;1518;52.408;13.060;2022-07-23T01:22:08;17.10;99.90
3017;DHT22;1518;52.408;13.060;2022-07-23T01:24:58;17.00;99.90
3017;DHT22;1518;52.408;13.060;2022-07-23T01:27:46;17.00;99.90
3017;DHT22;1518;52.408;13.060;2022-07-23T01:30:35;17.00;99.90
3017;DHT22;1518;52.408;13.060;2022-07-23T01:33:23;17.00;99.90
3017;DHT22;1518;52.408;13.060;2022-07-23T01:36:11;17.00;99.90
3017;DHT22;1518;52.408;13.060;2022-07-23T01:38:59;17.10;99.90
3017;DHT22;1518;52.408;13.060;2022-07-23T01:41:49;17.10;99.90
3017;DHT22;1518;52.408;13.060;2022-07-23T01:44:37;17.00;99.90
3017;DHT22;1518;52.408;13.060;2022-07-23T01:47:27;17.00;99.90
3017;DHT22;1518;52.408;13.060;2022-07-23T01:50:15;17.00;99.90
3017;DHT22;1518;52.408;13.060;2022-07-23T01:53:03;17.00;99.90
3017;DHT22;1518;52.408;13.060;2022-07-23T01:55:51;17.00;99.90
3017;DHT22;1518;52.408;13.060;2022-07-23T01:58:40;16.80;99.90
3017;DHT22;1518;52.408;13.060;2022-07-23T02:01:28;16.90;99.90
3017;DHT22;1518;52.408;13.060;2022-07-23T02:04:17;16.80;99.90
3017;DHT22;1518;52.408;13.060;2022-07-23T02:07:05;16.80;99.90
3017;DHT22;1518;52.408;13.060;2022-07-23T02:09:53;16.80;99.90
3017;DHT22;1518;52.408;13.060;2022-07-23T02:12:41;16.70;99.90
3017;DHT22;1518;52.408;13.060;2022-07-23T02:15:31;16.70;99.90
3017;DHT22;1518;52.408;13.060;2022-07-23T02:18:20;16.60;99.90
3017;DHT22;1518;52.408;13.060;2022-07-23T02:21:08;16.80;99.90
3017;DHT22;1518;52.408;13.060;2022-07-23T02:23:56;16.70;99.90
3017;DHT22;1518;52.408;13.060;2022-07-23T02:26:44;16.90;99.90
3017;DHT22;1518;52.408;13.060;2022-07-23T02:29:32;16.80;99.90
3017;DHT22;1518;52.408;13.060;2022-07-23T02:32:21;16.70;99.90
3017;DHT22;1518;52.408;13.060;2022-07-23T02:35:09;16.70;99.90
3017;DHT22;1518;52.408;13.060;2022-07-23T02:37:58;16.60;99.90
3017;DHT22;1518;52.408;13.060;2022-07-23T02:40:46;16.60;99.90
3017;DHT22;1518;52.408;13.060;2022-07-23T02:43:34;16.50;99.90
3017;DHT22;1518;52.408;13.060;2022-07-23T02:46:22;16.50;99.90
3017;DHT22;1518;52.408;13.060;2022-07-23T02:49:11;16.50;99.90
3017;DHT22;1518;52.408;13.060;2022-07-23T02:52:00;16.50;99.90
3017;DHT22;1518;52.408;13.060;2022-07-23T02:54:48;16.70;99.90
3017;DHT22;1518;52.408;13.060;2022-07-23T02:57:36;16.80;99.90
3017;DHT22;1518;52.408;13.060;2022-07-23T03:00:24;16.80;99.90
3017;DHT22;1518;52.408;13.060;2022-07-23T03:03:13;16.80;99.90
3017;DHT22;1518;52.408;13.060;2022-07-23T03:06:02;16.80;99.90
3017;DHT22;1518;52.408;13.060;2022-07-23T03:08:50;17.00;99.90
3017;DHT22;1518;52.408;13.060;2022-07-23T03:11:38;16.90;99.90
3017;DHT22;1518;52.408;13.060;2022-07-23T03:14:27;16.90;99.90
3017;DHT22;1518;52.408;13.060;2022-07-23T03:17:16;17.00;99.90
3017;DHT22;1518;52.408;13.060;2022-07-23T03:20:05;17.00;99.90
3017;DHT22;1518;52.408;13.060;2022-07-23T03:22:55;17.10;99.90
3017;DHT22;1518;52.408;13.060;2022-07-23T03:25:43;17.10;99.90
3017;DHT22;1518;52.408;13.060;2022-07-23T03:28:37;17.10;99.90
3017;DHT22;1518;52.408;13.060;2022-07-23T03:31:25;17.10;99.90
3017;DHT22;1518;52.408;13.060;2022-07-23T03:34:14;17.20;99.90
3017;DHT22;1518;52.408;13.060;2022-07-23T03:37:02;17.20;99.90
3017;DHT22;1518;52.408;13.060;2022-07-23T03:39:53;17.10;99.90
3017;DHT22;1518;52.408;13.060;2022-07-23T03:42:41;17.10;99.90
3017;DHT22;1518;52.408;13.060;2022-07-23T03:45:30;17.00;99.90
3017;DHT22;1518;52.408;13.060;2022-07-23T03:48:18;17.00;99.90
3017;DHT22;1518;52.408;13.060;2022-07-23T03:51:06;17.10;99.90
3017;DHT22;1518;52.408;13.060;2022-07-23T03:53:55;17.10;99.90
3017;DHT22;1518;52.408;13.060;2022-07-23T03:56:44;17.10;99.90
3017;DHT22;1518;52.408;13.060;2022-07-23T03:59:32;17.10;99.90
3017;DHT22;1518;52.408;13.060;2022-07-23T04:02:20;17.20;99.90
3017;DHT22;1518;52.408;13.060;2022-07-23T04:05:09;17.20;99.90
3017;DHT22;1518;52.408;13.060;2022-07-23T04:07:57;17.20;99.90
3017;DHT22;1518;52.408;13.060;2022-07-23T04:10:45;17.20;99.90
3017;DHT22;1518;52.408;13.060;2022-07-23T04:13:34;17.20;99.90
3017;DHT22;1518;52.408;13.060;2022-07-23T04:16:23;17.10;99.90
3017;DHT22;1518;52.408;13.060;2022-07-23T04:19:11;17.00;99.90
3017;DHT22;1518;52.408;13.060;2022-07-23T04:21:59;16.90;99.90
3017;DHT22;1518;52.408;13.060;2022-07-23T04:24:47;16.80;99.90
3017;DHT22;1518;52.408;13.060;2022-07-23T04:27:36;16.60;99.90
3017;DHT22;1518;52.408;13.060;2022-07-23T04:30:25;16.60;99.90
3017;DHT22;1518;52.408;13.060;2022-07-23T04:33:13;16.50;99.90
3017;DHT22;1518;52.408;13.060;2022-07-23T04:36:02;16.40;99.90
3017;DHT22;1518;52.408;13.060;2022-07-23T04:38:50;16.30;99.90
3017;DHT22;1518;52.408;13.060;2022-07-23T04:41:38;16.20;99.90
3017;DHT22;1518;52.408;13.060;2022-07-23T04:44:27;16.30;99.90
3017;DHT22;1518;52.408;13.060;2022-07-23T04:47:16;16.40;99.90
3017;DHT22;1518;52.408;13.060;2022-07-23T04:50:04;16.40;99.90
3017;DHT22;1518;52.408;13.060;2022-07-23T04:52:53;16.50;99.90
3017;DHT22;1518;52.408;13.060;2022-07-23T04:55:41;16.50;99.90
3017;DHT22;1518;52.408;13.060;2022-07-23T04:58:29;16.60;99.90
3017;DHT22;1518;52.408;13.060;2022-07-23T05:01:18;16.60;99.90
3017;DHT22;1518;52.408;13.060;2022-07-23T05:04:08;16.60;99.90
3017;DHT22;1518;52.408;13.060;2022-07-23T05:06:56;16.60;99.90
3017;DHT22;1518;52.408;13.060;2022-07-23T05:09:44;16.70;99.90
3017;DHT22;1518;52.408;13.060;2022-07-23T05:12:32;16.70;99.90
3017;DHT22;1518;52.408;13.060;2022-07-23T05:15:20;16.80;99.90
3017;DHT22;1518;52.408;13.060;2022-07-23T05:18:09;16.80;99.90
3017;DHT22;1518;52.408;13.060;2022-07-23T05:20:59;16.80;99.90
3017;DHT22;1518;52.408;13.060;2022-07-23T05:23:47;16.80;99.90
3017;DHT22;1518;52.408;13.060;2022-07-23T05:26:35;16.70;99.90
3017;DHT22;1518;52.408;13.060;2022-07-23T05:29:23;16.70;99.90
3017;DHT22;1518;52.408;13.060;2022-07-23T05:32:11;16.70;99.90
3017;DHT22;1518;52.408;13.060;2022-07-23T05:34:59;16.70;99.90
3017;DHT22;1518;52.408;13.060;2022-07-23T05:37:50;16.70;99.90
3017;DHT22;1518;52.408;13.060;2022-07-23T05:40:39;16.60;99.90
3017;DHT22;1518;52.408;13.060;2022-07-23T05:43:28;16.50;99.90
3017;DHT22;1518;52.408;13.060;2022-07-23T05:46:16;16.60;99.90
3017;DHT22;1518;52.408;13.060;2022-07-23T05:49:04;16.60;99.90
3017;DHT22;1518;52.408;13.060;2022-07-23T05:51:53;16.70;99.90
3017;DHT22;1518;52.408;13.060;2022-07-23T05:54:43;16.70;99.90
3017;DHT22;1518;52.408;13.060;2022-07-23T05:57:31;16.80;99.90
3017;DHT22;1518;52.408;13.060;2022-07-23T06:00:19;16.90;99.90
3017;DHT22;1518;52.408;13.060;2022-07-23T06:03:07;17.00;99.90
3017;DHT22;1518;52.408;13.060;2022-07-23T06:05:55;17.00;99.90
3017;DHT22;1518;52.408;13.060;2022-07-23T06:08:43;17.10;99.90
3017;DHT22;1518;52.408;13.060;2022-07-23T06:11:33;17.20;99.90
3017;DHT22;1518;52.408;13.060;2022-07-23T06:14:21;17.40;99.90
3017;DHT22;1518;52.408;13.060;2022-07-23T06:17:09;17.70;99.90
3017;DHT22;1518;52.408;13.060;2022-07-23T06:19:57;17.60;99.90
3017;DHT22;1518;52.408;13.060;2022-07-23T06:22:45;17.80;99.90
3017;DHT22;1518;52.408;13.060;2022-07-23T06:25:33;17.80;99.90
3017;DHT22;1518;52.408;13.060;2022-07-23T06:28:23;17.90;99.90
3017;DHT22;1518;52.408;13.060;2022-07-23T06:31:11;17.90;99.90
3017;DHT22;1518;52.408;13.060;2022-07-23T06:33:59;17.90;99.90
3017;DHT22;1518;52.408;13.060;2022-07-23T06:36:47;17.80;99.90
3017;DHT22;1518;52.408;13.060;2022-07-23T06:39:35;17.80;99.90
3017;DHT22;1518;52.408;13.060;2022-07-23T06:42:23;17.80;99.90
3017;DHT22;1518;52.408;13.060;2022-07-23T06:45:13;17.80;99.90
3017;DHT22;1518;52.408;13.060;2022-07-23T06:48:01;17.90;99.90
3017;DHT22;1518;52.408;13.060;2022-07-23T06:50:50;17.80;99.90
3017;DHT22;1518;52.408;13.060;2022-07-23T06:53:39;17.80;99.90
3017;DHT22;1518;52.408;13.060;2022-07-23T06:56:28;17.90;99.90
3017;DHT22;1518;52.408;13.060;2022-07-23T06:59:16;18.10;99.90
3017;DHT22;1518;52.408;13.060;2022-07-23T07:02:05;18.20;99.90
3017;DHT22;1518;52.408;13.060;2022-07-23T07:04:54;18.20;99.90
3017;DHT22;1518;52.408;13.060;2022-07-23T07:07:50;18.40;99.90
3017;DHT22;1518;52.408;13.060;2022-07-23T07:10:38;18.50;99.90
3017;DHT22;1518;52.408;13.060;2022-07-23T07:13:27;18.60;99.90
3017;DHT22;1518;52.408;13.060;2022-07-23T07:16:15;18.80;99.90
3017;DHT22;1518;52.408;13.060;2022-07-23T07:19:05;18.80;99.90
3017;DHT22;1518;52.408;13.060;2022-07-23T07:21:53;18.60;99.90
3017;DHT22;1518;52.408;13.060;2022-07-23T07:24:41;18.40;99.90
3017;DHT22;1518;52.408;13.060;2022-07-23T07:27:29;18.30;99.90
3017;DHT22;1518;52.408;13.060;2022-07-23T07:30:17;18.20;99.90
3017;DHT22;1518;52.408;13.060;2022-07-23T07:33:06;18.00;99.90
3017;DHT22;1518;52.408;13.060;2022-07-23T07:35:55;18.00;99.90
3017;DHT22;1518;52.408;13.060;2022-07-23T07:38:43;18.00;99.90
3017;DHT22;1518;52.408;13.060;2022-07-23T07:41:32;18.10;99.90
3017;DHT22;1518;52.408;13.060;2022-07-23T07:44:20;18.40;99.90
3017;DHT22;1518;52.408;13.060;2022-07-23T07:47:08;18.70;99.90
3017;DHT22;1518;52.408;13.060;2022-07-23T07:49:56;18.90;99.90
3017;DHT22;1518;52.408;13.060;2022-07-23T07:52:46;19.10;99.90
3017;DHT22;1518;52.408;13.060;2022-07-23T07:55:35;19.00;99.90
3017;DHT22;1518;52.408;13.060;2022-07-23T07:58:24;18.70;99.90
3017;DHT22;1518;52.408;13.060;2022-07-23T08:01:12;18.60;99.90
3017;DHT22;1518;52.408;13.060;2022-07-23T08:04:00;18.70;99.90
3017;DHT22;1518;52.408;13.060;2022-07-23T08:06:49;18.90;99.90
3017;DHT22;1518;52.408;13.060;2022-07-23T08:09:39;19.30;99.90
3017;DHT22;1518;52.408;13.060;2022-07-23T08:12:27;20.10;99.90
3017;DHT22;1518;52.408;13.060;2022-07-23T08:15:16;20.80;99.90
3017;DHT22;1518;52.408;13.060;2022-07-23T08:18:05;20.90;99.90
3017;DHT22;1518;52.408;13.060;2022-07-23T08:20:53;20.40;99.90
3017;DHT22;1518;52.408;13.060;2022-07-23T08:23:41;20.00;99.90
3017;DHT22;1518;52.408;13.060;2022-07-23T08:26:30;19.80;99.90
3017;DHT22;1518;52.408;13.060;2022-07-23T08:29:18;19.80;99.90
3017;DHT22;1518;52.408;13.060;2022-07-23T08:32:13;19.70;99.90
3017;DHT22;1518;52.408;13.060;2022-07-23T08:35:26;19.50;99.90
3017;DHT22;1518;52.408;13.060;2022-07-23T08:38:16;19.30;99.90
3017;DHT22;1518;52.408;13.060;2022-07-23T08:41:07;19.20;99.90
3017;DHT22;1518;52.408;13.060;2022-07-23T08:43:57;19.30;99.90
3017;DHT22;1518;52.408;13.060;2022-07-23T08:46:48;19.40;99.90
3017;DHT22;1518;52.408;13.060;2022-07-23T08:49:37;20.00;99.90
3017;DHT22;1518;52.408;13.060;2022-07-23T08:52:26;20.30;99.90
3017;DHT22;1518;52.408;13.060;2022-07-23T08:55:16;20.40;99.90
3017;DHT22;1518;52.408;13.060;2022-07-23T08:58:04;20.50;99.90
3017;DHT22;1518;52.408;13.060;2022-07-23T09:00:54;20.70;99.90
3017;DHT22;1518;52.408;13.060;2022-07-23T09:03:43;20.90;99.90
3017;DHT22;1518;52.408;13.060;2022-07-23T09:06:32;20.60;99.90
3017;DHT22;1518;52.408;13.060;2022-07-23T09:09:21;20.10;99.90
3017;DHT22;1518;52.408;13.060;2022-07-23T09:12:10;19.90;99.90
3017;DHT22;1518;52.408;13.060;2022-07-23T09:15:04;19.80;99.90
3017;DHT22;1518;52.408;13.060;2022-07-23T09:17:53;19.80;99.90
3017;DHT22;1518;52.408;13.060;2022-07-23T09:20:43;20.00;99.90
3017;DHT22;1518;52.408;13.060;2022-07-23T09:23:37;20.30;99.90
3017;DHT22;1518;52.408;13.060;2022-07-23T09:26:32;20.90;99.90
3017;DHT22;1518;52.408;13.060;2022-07-23T09:29:21;21.20;99.90
3017;DHT22;1518;52.408;13.060;2022-07-23T09:32:13;21.40;99.90
3017;DHT22;1518;52.408;13.060;2022-07-23T09:35:03;21.60;99.90
3017;DHT22;1518;52.408;13.060;2022-07-23T09:38:01;21.40;99.90
3017;DHT22;1518;52.408;13.060;2022-07-23T09:41:05;21.20;99.90
3017;DHT22;1518;52.408;13.060;2022-07-23T09:43:55;21.60;99.90
3017;DHT22;1518;52.408;13.060;2022-07-23T09:46:45;22.00;99.90
3017;DHT22;1518;52.408;13.060;2022-07-23T09:49:33;22.10;99.90
3017;DHT22;1518;52.408;13.060;2022-07-23T09:52:29;22.20;99.90
3017;DHT22;1518;52.408;13.060;2022-07-23T09:55:31;22.40;99.90
3017;DHT22;1518;52.408;13.060;2022-07-23T09:58:22;22.10;99.90
3017;DHT22;1518;52.408;13.060;2022-07-23T10:01:13;22.00;99.90
3017;DHT22;1518;52.408;13.060;2022-07-23T10:04:02;22.00;99.90
3017;DHT22;1518;52.408;13.060;2022-07-23T10:06:53;21.90;99.90
3017;DHT22;1518;52.408;13.060;2022-07-23T10:09:43;22.00;99.90
3017;DHT22;1518;52.408;13.060;2022-07-23T10:12:33;22.10;99.90
3017;DHT22;1518;52.408;13.060;2022-07-23T10:15:32;22.60;99.90
3017;DHT22;1518;52.408;13.060;2022-07-23T10:18:21;22.60;99.90
3017;DHT22;1518;52.408;13.060;2022-07-23T10:21:10;22.20;99.90
3017;DHT22;1518;52.408;13.060;2022-07-23T10:24:16;22.00;99.90
3017;DHT22;1518;52.408;13.060;2022-07-23T10:27:20;21.90;99.90
3017;DHT22;1518;52.408;13.060;2022-07-23T10:30:18;21.80;99.90
3017;DHT22;1518;52.408;13.060;2022-07-23T10:33:22;21.90;99.90
3017;DHT22;1518;52.408;13.060;2022-07-23T10:36:19;22.10;99.90
3017;DHT22;1518;52.408;13.060;2022-07-23T10:39:13;22.00;99.90
3017;DHT22;1518;52.408;13.060;2022-07-23T10:42:12;22.00;99.90
3017;DHT22;1518;52.408;13.060;2022-07-23T10:45:00;22.10;99.90
3017;DHT22;1518;52.408;13.060;2022-07-23T10:47:49;22.20;99.90
3017;DHT22;1518;52.408;13.060;2022-07-23T10:50:39;22.40;99.90
3017;DHT22;1518;52.408;13.060;2022-07-23T10:53:27;22.30;99.90
3017;DHT22;1518;52.408;13.060;2022-07-23T10:56:15;22.30;99.90
3017;DHT22;1518;52.408;13.060;2022-07-23T10:59:05;22.50;99.90
3017;DHT22;1518;52.408;13.060;2022-07-23T11:01:53;22.90;99.90
3017;DHT22;1518;52.408;13.060;2022-07-23T11:04:52;23.60;99.90
3017;DHT22;1518;52.408;13.060;2022-07-23T11:11:12;24.10;99.90
3017;DHT22;1518;52.408;13.060;2022-07-23T11:14:00;24.10;99.90
3017;DHT22;1518;52.408;13.060;2022-07-23T11:16:54;24.30;99.90
3017;DHT22;1518;52.408;13.060;2022-07-23T11:20:17;24.50;99.90
3017;DHT22;1518;52.408;13.060;2022-07-23T11:23:05;24.70;99.90
3017;DHT22;1518;52.408;13.060;2022-07-23T11:25:53;24.90;99.90
3017;DHT22;1518;52.408;13.060;2022-07-23T11:28:42;25.10;99.90
3017;DHT22;1518;52.408;13.060;2022-07-23T11:31:30;24.90;99.90
3017;DHT22;1518;52.408;13.060;2022-07-23T11:34:29;24.60;99.90
3017;DHT22;1518;52.408;13.060;2022-07-23T11:37:37;24.30;99.90
3017;DHT22;1518;52.408;13.060;2022-07-23T11:40:25;24.20;99.90
3017;DHT22;1518;52.408;13.060;2022-07-23T11:43:15;24.30;99.90
3017;DHT22;1518;52.408;13.060;2022-07-23T11:46:03;24.30;99.90
3017;DHT22;1518;52.408;13.060;2022-07-23T11:49:01;24.40;99.90
3017;DHT22;1518;52.408;13.060;2022-07-23T11:52:04;24.40;99.90
3017;DHT22;1518;52.408;13.060;2022-07-23T11:54:55;24.00;99.90
3017;DHT22;1518;52.408;13.060;2022-07-23T11:57:44;23.60;99.90
3017;DHT22;1518;52.408;13.060;2022-07-23T12:00:32;23.50;99.90
3017;DHT22;1518;52.408;13.060;2022-07-23T12:03:27;23.70;99.90
3017;DHT22;1518;52.408;13.060;2022-07-23T12:06:15;23.90;99.90
3017;DHT22;1518;52.408;13.060;2022-07-23T12:09:04;24.20;99.90
3017;DHT22;1518;52.408;13.060;2022-07-23T12:11:58;24.60;99.90
3017;DHT22;1518;52.408;13.060;2022-07-23T12:14:48;25.00;99.90
3017;DHT22;1518;52.408;13.060;2022-07-23T12:17:39;25.30;99.90
3017;DHT22;1518;52.408;13.060;2022-07-23T12:20:30;25.70;99.90
3017;DHT22;1518;52.408;13.060;2022-07-23T12:23:20;25.40;99.90
3017;DHT22;1518;52.408;13.060;2022-07-23T12:26:10;25.30;99.90
3017;DHT22;1518;52.408;13.060;2022-07-23T12:28:58;25.40;99.90
3017;DHT22;1518;52.408;13.060;2022-07-23T12:31:46;25.60;99.90
3017;DHT22;1518;52.408;13.060;2022-07-23T12:34:35;25.70;99.90
3017;DHT22;1518;52.408;13.060;2022-07-23T12:37:30;25.30;99.90
3017;DHT22;1518;52.408;13.060;2022-07-23T12:40:25;24.80;99.90
3017;DHT22;1518;52.408;13.060;2022-07-23T12:43:21;24.60;99.90
3017;DHT22;1518;52.408;13.060;2022-07-23T12:46:12;24.50;99.90
3017;DHT22;1518;52.408;13.060;2022-07-23T12:49:02;24.80;99.90
3017;DHT22;1518;52.408;13.060;2022-07-23T12:51:50;25.70;99.90
3017;DHT22;1518;52.408;13.060;2022-07-23T12:54:39;26.40;99.90
3017;DHT22;1518;52.408;13.060;2022-07-23T12:57:46;27.00;99.90
3017;DHT22;1518;52.408;13.060;2022-07-23T13:00:56;28.60;99.90
3017;DHT22;1518;52.408;13.060;2022-07-23T13:03:55;29.80;96.90
3017;DHT22;1518;52.408;13.060;2022-07-23T13:06:46;31.50;93.60
3017;DHT22;1518;52.408;13.060;2022-07-23T13:09:35;33.10;89.30
3017;DHT22;1518;52.408;13.060;2022-07-23T13:12:29;34.80;80.20
3017;DHT22;1518;52.408;13.060;2022-07-23T13:15:17;35.30;75.00
3017;DHT22;1518;52.408;13.060;2022-07-23T13:18:08;34.60;74.20
3017;DHT22;1518;52.408;13.060;2022-07-23T13:20:57;32.60;75.40
3017;DHT22;1518;52.408;13.060;2022-07-23T13:23:45;32.70;76.60
3017;DHT22;1518;52.408;13.060;2022-07-23T13:26:33;34.20;73.00
3017;DHT22;1518;52.408;13.060;2022-07-23T13:29:21;34.30;70.10
3017;DHT22;1518;52.408;13.060;2022-07-23T13:32:12;34.00;69.10
3017;DHT22;1518;52.408;13.060;2022-07-23T13:35:02;34.70;68.00
3017;DHT22;1518;52.408;13.060;2022-07-23T13:37:51;35.40;65.90
3017;DHT22;1518;52.408;13.060;2022-07-23T13:40:41;36.10;62.90
3017;DHT22;1518;52.408;13.060;2022-07-23T13:43:31;37.20;60.70
3017;DHT22;1518;52.408;13.060;2022-07-23T13:46:22;35.70;60.60
3017;DHT22;1518;52.408;13.060;2022-07-23T13:49:10;33.70;66.10
3017;DHT22;1518;52.408;13.060;2022-07-23T13:52:01;33.40;65.90
3017;DHT22;1518;52.408;13.060;2022-07-23T13:54:52;33.50;65.50
3017;DHT22;1518;52.408;13.060;2022-07-23T13:57:40;35.30;62.80
3017;DHT22;1518;52.408;13.060;2022-07-23T14:00:30;37.00;59.70
3017;DHT22;1518;52.408;13.060;2022-07-23T14:03:38;37.10;58.20
3017;DHT22;1518;52.408;13.060;2022-07-23T14:06:27;37.30;56.70
3017;DHT22;1518;52.408;13.060;2022-07-23T14:09:20;37.60;57.80
3017;DHT22;1518;52.408;13.060;2022-07-23T14:12:11;38.40;55.60
3017;DHT22;1518;52.408;13.060;2022-07-23T14:15:05;38.90;54.80
3017;DHT22;1518;52.408;13.060;2022-07-23T14:20:47;38.30;53.00
3017;DHT22;1518;52.408;13.060;2022-07-23T14:23:35;38.10;53.20
3017;DHT22;1518;52.408;13.060;2022-07-23T14:26:26;36.90;53.40
3017;DHT22;1518;52.408;13.060;2022-07-23T14:29:15;35.00;56.20
3017;DHT22;1518;52.408;13.060;2022-07-23T14:32:03;34.60;56.80
3017;DHT22;1518;52.408;13.060;2022-07-23T14:34:53;34.60;57.50
3017;DHT22;1518;52.408;13.060;2022-07-23T14:37:45;34.90;57.70
3017;DHT22;1518;52.408;13.060;2022-07-23T14:40:34;35.80;56.10
3017;DHT22;1518;52.408;13.060;2022-07-23T14:43:23;36.80;54.70
3017;DHT22;1518;52.408;13.060;2022-07-23T14:46:12;37.10;53.30
3017;DHT22;1518;52.408;13.060;2022-07-23T14:49:01;37.50;53.30
3017;DHT22;1518;52.408;13.060;2022-07-23T14:51:52;37.50;52.20
3017;DHT22;1518;52.408;13.060;2022-07-23T14:54:40;37.70;52.80
3017;DHT22;1518;52.408;13.060;2022-07-23T14:57:29;38.30;51.90
3017;DHT22;1518;52.408;13.060;2022-07-23T15:00:20;38.80;50.70
3017;DHT22;1518;52.408;13.060;2022-07-23T15:03:10;39.90;49.50
3017;DHT22;1518;52.408;13.060;2022-07-23T15:05:59;39.90;48.30
3017;DHT22;1518;52.408;13.060;2022-07-23T15:08:47;38.70;49.00
3017;DHT22;1518;52.408;13.060;2022-07-23T15:11:35;37.40;50.60
3017;DHT22;1518;52.408;13.060;2022-07-23T15:14:24;36.00;51.70
3017;DHT22;1518;52.408;13.060;2022-07-23T15:17:22;35.90;51.10
3017;DHT22;1518;52.408;13.060;2022-07-23T15:20:12;36.10;52.30
3017;DHT22;1518;52.408;13.060;2022-07-23T15:23:21;37.50;50.30
3017;DHT22;1518;52.408;13.060;2022-07-23T15:26:09;37.50;48.80
3017;DHT22;1518;52.408;13.060;2022-07-23T15:28:57;38.00;49.00
3017;DHT22;1518;52.408;13.060;2022-07-23T15:31:47;38.10;49.50
3017;DHT22;1518;52.408;13.060;2022-07-23T15:34:44;38.60;47.30
3017;DHT22;1518;52.408;13.060;2022-07-23T15:37:34;37.90;47.70
3017;DHT22;1518;52.408;13.060;2022-07-23T15:40:22;33.70;51.90
3017;DHT22;1518;52.408;13.060;2022-07-23T15:43:10;33.50;52.50
3017;DHT22;1518;52.408;13.060;2022-07-23T15:46:04;32.10;54.30
3017;DHT22;1518;52.408;13.060;2022-07-23T15:48:54;30.40;56.90
3017;DHT22;1518;52.408;13.060;2022-07-23T15:51:44;31.40;56.60
3017;DHT22;1518;52.408;13.060;2022-07-23T15:54:34;33.40;54.40
3017;DHT22;1518;52.408;13.060;2022-07-23T15:57:23;34.20;52.00
3017;DHT22;1518;52.408;13.060;2022-07-23T16:00:11;34.40;52.40
3017;DHT22;1518;52.408;13.060;2022-07-23T16:03:00;34.30;52.40
3017;DHT22;1518;52.408;13.060;2022-07-23T16:05:53;33.70;52.50
3017;DHT22;1518;52.408;13.060;2022-07-23T16:08:42;32.10;53.20
3017;DHT22;1518;52.408;13.060;2022-07-23T16:11:31;30.70;55.80
3017;DHT22;1518;52.408;13.060;2022-07-23T16:14:19;30.00;56.50
3017;DHT22;1518;52.408;13.060;2022-07-23T16:17:07;30.00;57.00
3017;DHT22;1518;52.408;13.060;2022-07-23T16:19:56;30.20;56.40
3017;DHT22;1518;52.408;13.060;2022-07-23T16:22:44;29.70;57.30
3017;DHT22;1518;52.408;13.060;2022-07-23T16:25:33;29.30;58.00
3017;DHT22;1518;52.408;13.060;2022-07-23T16:28:21;29.10;58.90
3017;DHT22;1518;52.408;13.060;2022-07-23T16:31:10;30.90;57.10
3017;DHT22;1518;52.408;13.060;2022-07-23T16:33:58;33.40;54.30
3017;DHT22;1518;52.408;13.060;2022-07-23T16:36:46;34.80;51.60
3017;DHT22;1518;52.408;13.060;2022-07-23T16:39:35;33.70;51.80
3017;DHT22;1518;52.408;13.060;2022-07-23T16:42:24;32.10;54.10
3017;DHT22;1518;52.408;13.060;2022-07-23T16:45:12;30.50;56.00
3017;DHT22;1518;52.408;13.060;2022-07-23T16:48:01;31.50;54.80
3017;DHT22;1518;52.408;13.060;2022-07-23T16:50:49;33.20;52.20
3017;DHT22;1518;52.408;13.060;2022-07-23T16:53:37;34.60;51.70
3017;DHT22;1518;52.408;13.060;2022-07-23T16:56:25;35.90;49.00
3017;DHT22;1518;52.408;13.060;2022-07-23T16:59:15;36.50;47.70
3017;DHT22;1518;52.408;13.060;2022-07-23T17:02:03;36.20;48.00
3017;DHT22;1518;52.408;13.060;2022-07-23T17:04:51;35.50;48.30
3017;DHT22;1518;52.408;13.060;2022-07-23T17:07:39;35.00;49.00
3017;DHT22;1518;52.408;13.060;2022-07-23T17:10:27;35.00;49.60
3017;DHT22;1518;52.408;13.060;2022-07-23T17:13:15;35.10;48.70
3017;DHT22;1518;52.408;13.060;2022-07-23T17:16:05;35.20;48.20
3017;DHT22;1518;52.408;13.060;2022-07-23T17:18:54;35.00;48.90
3017;DHT22;1518;52.408;13.060;2022-07-23T17:21:42;34.70;49.50
3017;DHT22;1518;52.408;13.060;2022-07-23T17:24:30;33.60;50.10
3017;DHT22;1518;52.408;13.060;2022-07-23T17:27:18;32.90;51.10
3017;DHT22;1518;52.408;13.060;2022-07-23T17:30:10;33.80;50.70
3017;DHT22;1518;52.408;13.060;2022-07-23T17:33:00;34.60;49.90
3017;DHT22;1518;52.408;13.060;2022-07-23T17:35:53;34.80;49.50
3017;DHT22;1518;52.408;13.060;2022-07-23T17:38:42;34.50;49.20
3017;DHT22;1518;52.408;13.060;2022-07-23T17:41:30;34.40;49.80
3017;DHT22;1518;52.408;13.060;2022-07-23T17:44:19;34.20;50.00
3017;DHT22;1518;52.408;13.060;2022-07-23T17:47:07;34.30;49.90
3017;DHT22;1518;52.408;13.060;2022-07-23T17:49:57;34.10;49.70
3017;DHT22;1518;52.408;13.060;2022-07-23T17:52:47;33.80;50.30
3017;DHT22;1518;52.408;13.060;2022-07-23T17:55:35;33.50;50.60
3017;DHT22;1518;52.408;13.060;2022-07-23T17:58:24;32.70;51.70
3017;DHT22;1518;52.408;13.060;2022-07-23T18:01:12;32.70;52.30
3017;DHT22;1518;52.408;13.060;2022-07-23T18:04:00;32.20;52.10
3017;DHT22;1518;52.408;13.060;2022-07-23T18:06:50;31.10;53.30
3017;DHT22;1518;52.408;13.060;2022-07-23T18:09:38;29.60;55.00
3017;DHT22;1518;52.408;13.060;2022-07-23T18:12:27;28.10;56.90
3017;DHT22;1518;52.408;13.060;2022-07-23T18:15:15;26.90;59.50